Time;durP1;ratioP1;P1;durP2;ratioP2;P2;SDS_P1;SDS_P2;PMS_P1;PMS_P2;Temp;Humidity;BMP_temperature;BMP_pressure;BME280_temperature;BME280_humidity;BME280_pressure;Samples;Min_cycle;Max_cycle;Signal;HPM_P1;HPM_P2
2023/11/25 00:00:26;;;;;;;22.58;3.95;;;;;;;;;;5039619;28;20083;-46
2023/11/25 00:02:57;;;;;;;24.63;4.10;;;;;;;;;;5039868;28;20075;-46
2023/11/25 00:05:24;;;;;;;19.35;3.53;;;;;;;;;;5033236;28;20182;-50
2023/11/25 00:07:51;;;;;;;28.40;4.75;;;;;;;;;;5040348;28;20037;-51
2023/11/25 00:10:18;;;;;;;24.77;3.95;;;;;;;;;;5043313;28;20081;-47
2023/11/25 00:12:47;;;;;;;24.33;4.32;;;;;;;;;;5040880;28;20490;-47
2023/11/25 00:15:14;;;;;;;15.63;4.18;;;;;;;;;;5020091;28;20196;-48
2023/11/25 00:17:42;;;;;;;26.00;4.00;;;;;;;;;;5043938;28;20047;-47
2023/11/25 00:20:09;;;;;;;27.33;4.00;;;;;;;;;;5033102;28;20106;-47
2023/11/25 00:22:36;;;;;;;29.83;4.28;;;;;;;;;;5032709;28;20032;-48
2023/11/25 00:25:03;;;;;;;21.15;3.97;;;;;;;;;;5032587;28;20029;-46
2023/11/25 00:27:31;;;;;;;27.45;3.63;;;;;;;;;;5031822;28;20041;-47
2023/11/25 00:29:58;;;;;;;21.02;3.42;;;;;;;;;;5032669;28;20091;-46
2023/11/25 00:32:25;;;;;;;23.52;4.65;;;;;;;;;;5032945;28;20089;-46
2023/11/25 00:34:52;;;;;;;24.75;4.30;;;;;;;;;;5032839;28;20034;-47
2023/11/25 00:37:19;;;;;;;19.88;4.05;;;;;;;;;;5033098;28;20018;-46
2023/11/25 00:39:46;;;;;;;18.38;3.90;;;;;;;;;;5032892;28;20021;-46
2023/11/25 00:42:14;;;;;;;22.98;3.55;;;;;;;;;;5032822;28;20029;-47
2023/11/25 00:44:41;;;;;;;20.83;4.05;;;;;;;;;;5032674;28;20026;-46
2023/11/25 00:47:12;;;;;;;16.25;3.70;;;;;;;;;;5026480;28;20041;-46
2023/11/25 00:49:41;;;;;;;20.02;4.38;;;;;;;;;;5024074;28;20029;-46
2023/11/25 00:52:08;;;;;;;16.88;3.53;;;;;;;;;;5028709;28;20100;-48
2023/11/25 00:54:35;;;;;;;14.52;2.70;;;;;;;;;;5031057;28;20108;-46
2023/11/25 00:57:02;;;;;;;16.45;3.83;;;;;;;;;;5032309;28;20021;-46
2023/11/25 00:59:29;;;;;;;22.95;3.47;;;;;;;;;;5031655;28;20598;-43
2023/11/25 01:01:56;;;;;;;19.77;3.67;;;;;;;;;;5032331;28;20033;-44
2023/11/25 01:04:23;;;;;;;17.75;4.03;;;;;;;;;;5032570;28;20042;-45
2023/11/25 01:06:50;;;;;;;18.65;3.30;;;;;;;;;;5032159;28;20480;-45
2023/11/25 01:09:19;;;;;;;20.27;3.55;;;;;;;;;;5032422;28;20029;-46
2023/11/25 01:11:49;;;;;;;18.02;3.80;;;;;;;;;;5031244;28;20064;-45
2023/11/25 01:14:17;;;;;;;17.45;3.13;;;;;;;;;;5013952;28;20396;-44
2023/11/25 01:16:44;;;;;;;22.00;4.15;;;;;;;;;;5019719;28;20045;-45
2023/11/25 01:19:12;;;;;;;18.75;3.97;;;;;;;;;;5013865;28;20503;-44
2023/11/25 01:21:39;;;;;;;19.08;3.40;;;;;;;;;;5012355;28;20065;-44
2023/11/25 01:24:07;;;;;;;15.95;3.42;;;;;;;;;;5030859;28;20045;-43
2023/11/25 01:26:34;;;;;;;18.38;3.63;;;;;;;;;;5030372;28;20041;-42
2023/11/25 01:29:01;;;;;;;18.73;3.55;;;;;;;;;;5031429;28;20088;-41
2023/11/25 01:31:27;;;;;;;17.88;3.78;;;;;;;;;;5031795;28;20075;-42
2023/11/25 01:33:55;;;;;;;19.40;3.72;;;;;;;;;;5022039;28;20029;-45
2023/11/25 01:36:22;;;;;;;24.70;4.00;;;;;;;;;;5032662;28;20033;-41
2023/11/25 01:38:49;;;;;;;17.58;3.53;;;;;;;;;;5037356;28;20108;-41
2023/11/25 01:41:17;;;;;;;22.17;4.18;;;;;;;;;;5035846;28;20056;-41
2023/11/25 01:43:44;;;;;;;28.35;4.40;;;;;;;;;;5034949;28;20029;-41
2023/11/25 01:46:11;;;;;;;23.80;4.60;;;;;;;;;;5050281;28;20596;-42
2023/11/25 01:48:38;;;;;;;20.65;4.28;;;;;;;;;;5038261;28;20111;-42
2023/11/25 01:51:06;;;;;;;16.58;4.35;;;;;;;;;;5025365;28;20128;-43
2023/11/25 01:53:34;;;;;;;25.60;4.25;;;;;;;;;;5028792;28;20030;-42
2023/11/25 01:56:04;;;;;;;23.50;4.22;;;;;;;;;;5030882;28;20057;-42
2023/11/25 01:58:34;;;;;;;18.80;3.70;;;;;;;;;;5030888;28;20033;-42
2023/11/25 02:01:01;;;;;;;20.10;4.38;;;;;;;;;;5030868;28;20049;-42
2023/11/25 02:03:31;;;;;;;17.13;3.28;;;;;;;;;;5029924;28;20365;-42
2023/11/25 02:05:58;;;;;;;17.38;3.97;;;;;;;;;;5030047;28;20064;-42
2023/11/25 02:08:26;;;;;;;16.65;3.42;;;;;;;;;;5026354;28;20037;-42
2023/11/25 02:10:53;;;;;;;14.52;3.22;;;;;;;;;;5023340;28;20045;-42
2023/11/25 02:13:22;;;;;;;18.83;3.83;;;;;;;;;;5029883;28;20029;-42
2023/11/25 02:15:49;;;;;;;15.05;3.42;;;;;;;;;;5030417;28;20037;-43
2023/11/25 02:18:16;;;;;;;15.10;3.53;;;;;;;;;;5029453;28;20104;-42
2023/11/25 02:20:45;;;;;;;13.15;3.25;;;;;;;;;;5024333;28;20022;-42
2023/11/25 02:23:24;;;;;;;17.52;3.22;;;;;;;;;;5027849;28;20369;-42
2023/11/25 02:25:52;;;;;;;14.35;3.45;;;;;;;;;;5031191;28;20036;-41
2023/11/25 02:28:20;;;;;;;23.98;3.92;;;;;;;;;;5030880;28;20033;-42
2023/11/25 02:30:48;;;;;;;14.82;3.45;;;;;;;;;;5031062;28;20032;-42
2023/11/25 02:33:15;;;;;;;13.68;3.20;;;;;;;;;;5019385;28;20037;-42
2023/11/25 02:35:42;;;;;;;13.00;3.30;;;;;;;;;;5020416;28;20029;-42
2023/11/25 02:38:14;;;;;;;15.18;3.65;;;;;;;;;;5022820;28;20102;-43
2023/11/25 02:40:48;;;;;;;15.65;3.55;;;;;;;;;;5035130;28;20030;-42
2023/11/25 02:43:16;;;;;;;15.10;3.25;;;;;;;;;;5034870;28;20504;-43
2023/11/25 02:45:44;;;;;;;9.38;3.17;;;;;;;;;;5026570;28;20110;-43
2023/11/25 02:48:15;;;;;;;10.18;3.00;;;;;;;;;;5025381;28;20033;-42
2023/11/25 02:50:42;;;;;;;12.60;3.33;;;;;;;;;;5020708;28;20037;-43
2023/11/25 02:53:10;;;;;;;14.68;3.70;;;;;;;;;;5024351;28;20025;-43
2023/11/25 02:55:37;;;;;;;13.20;2.90;;;;;;;;;;5024430;28;20030;-43
2023/11/25 02:58:04;;;;;;;13.15;3.35;;;;;;;;;;5018342;28;20108;-43
2023/11/25 03:00:36;;;;;;;14.48;3.90;;;;;;;;;;5018973;28;20052;-43
2023/11/25 03:03:13;;;;;;;13.48;2.85;;;;;;;;;;5017057;28;20109;-43
2023/11/25 03:05:45;;;;;;;9.32;2.80;;;;;;;;;;5021150;28;20030;-43
2023/11/25 03:08:13;;;;;;;11.50;3.15;;;;;;;;;;5034258;28;20037;-43
2023/11/25 03:10:46;;;;;;;17.77;2.90;;;;;;;;;;5034389;28;20029;-40
2023/11/25 03:13:13;;;;;;;11.70;2.60;;;;;;;;;;5016518;28;20025;-40
2023/11/25 03:15:40;;;;;;;10.25;2.72;;;;;;;;;;5031101;28;20878;-42
2023/11/25 03:18:07;;;;;;;16.13;3.50;;;;;;;;;;5025199;28;20029;-42
2023/11/25 03:20:35;;;;;;;7.57;2.83;;;;;;;;;;5023978;28;20029;-42
2023/11/25 03:23:09;;;;;;;12.45;3.20;;;;;;;;;;5025965;28;20036;-42
2023/11/25 03:25:37;;;;;;;15.48;2.95;;;;;;;;;;5034693;28;20394;-42
2023/11/25 03:28:07;;;;;;;13.07;2.85;;;;;;;;;;5034421;28;20399;-42
2023/11/25 03:30:35;;;;;;;11.95;3.10;;;;;;;;;;5034476;28;20030;-42
2023/11/25 03:33:02;;;;;;;14.68;2.97;;;;;;;;;;5034483;28;20025;-42
2023/11/25 03:35:29;;;;;;;11.30;2.65;;;;;;;;;;5034470;28;20021;-42
2023/11/25 03:37:56;;;;;;;10.15;2.80;;;;;;;;;;5034412;28;20463;-42
2023/11/25 03:40:23;;;;;;;11.60;2.90;;;;;;;;;;5034438;28;20112;-42
2023/11/25 03:42:50;;;;;;;9.73;2.67;;;;;;;;;;5034329;28;20549;-42
2023/11/25 03:45:18;;;;;;;8.10;2.40;;;;;;;;;;5034426;28;20022;-42
2023/11/25 03:47:45;;;;;;;10.10;2.70;;;;;;;;;;5033506;28;20029;-43
2023/11/25 03:50:12;;;;;;;10.65;2.92;;;;;;;;;;5033911;28;20032;-42
2023/11/25 03:52:43;;;;;;;12.30;2.90;;;;;;;;;;5034199;28;20026;-42
2023/11/25 03:55:10;;;;;;;12.18;2.63;;;;;;;;;;5034160;28;20037;-42
2023/11/25 03:57:38;;;;;;;8.07;2.63;;;;;;;;;;5034032;28;20022;-42
2023/11/25 04:00:14;;;;;;;9.80;2.97;;;;;;;;;;5033742;28;20060;-42
2023/11/25 04:02:45;;;;;;;10.63;2.65;;;;;;;;;;5033939;28;20033;-42
2023/11/25 04:05:13;;;;;;;8.15;2.50;;;;;;;;;;5033874;28;20441;-42
2023/11/25 04:07:40;;;;;;;9.02;2.40;;;;;;;;;;5033644;28;20152;-42
2023/11/25 04:10:15;;;;;;;12.80;2.22;;;;;;;;;;5033813;28;20392;-42
2023/11/25 04:12:49;;;;;;;11.10;2.22;;;;;;;;;;5033852;28;20053;-42
2023/11/25 04:15:21;;;;;;;12.00;2.40;;;;;;;;;;5033773;28;20021;-42
2023/11/25 04:17:48;;;;;;;10.48;2.58;;;;;;;;;;5033716;28;20048;-42
2023/11/25 04:20:23;;;;;;;10.98;2.50;;;;;;;;;;5033631;28;20052;-42
2023/11/25 04:22:51;;;;;;;12.50;2.42;;;;;;;;;;5033588;28;20034;-42
2023/11/25 04:25:18;;;;;;;8.90;2.35;;;;;;;;;;5033694;28;20029;-42
2023/11/25 04:27:48;;;;;;;8.43;2.22;;;;;;;;;;5033386;28;20064;-42
2023/11/25 04:30:18;;;;;;;10.40;2.60;;;;;;;;;;5033541;28;20029;-42
2023/11/25 04:32:47;;;;;;;11.95;2.63;;;;;;;;;;5033565;28;20026;-43
2023/11/25 04:35:14;;;;;;;6.95;2.08;;;;;;;;;;5015523;28;20749;-43
2023/11/25 04:37:51;;;;;;;8.93;2.20;;;;;;;;;;5033248;28;20104;-43
2023/11/25 04:40:18;;;;;;;11.25;2.20;;;;;;;;;;5033352;28;20036;-43
2023/11/25 04:42:45;;;;;;;6.90;1.95;;;;;;;;;;5033234;28;20017;-43
2023/11/25 04:45:16;;;;;;;9.60;2.08;;;;;;;;;;5033141;28;20037;-42
2023/11/25 04:47:47;;;;;;;11.02;2.58;;;;;;;;;;5033195;28;20060;-43
2023/11/25 04:50:14;;;;;;;10.38;2.00;;;;;;;;;;5033243;28;20036;-43
2023/11/25 04:52:42;;;;;;;7.03;2.00;;;;;;;;;;5033122;28;20025;-42
2023/11/25 04:55:09;;;;;;;10.43;2.03;;;;;;;;;;5033096;28;20036;-43
2023/11/25 04:57:36;;;;;;;8.07;1.65;;;;;;;;;;5032804;28;20679;-43
2023/11/25 05:00:08;;;;;;;9.07;1.80;;;;;;;;;;5032569;28;20057;-43
2023/11/25 05:02:38;;;;;;;5.60;2.03;;;;;;;;;;5015168;28;20474;-42
2023/11/25 05:05:06;;;;;;;7.78;1.85;;;;;;;;;;5032921;28;20104;-43
2023/11/25 05:07:33;;;;;;;10.00;1.50;;;;;;;;;;5032676;28;20365;-42
2023/11/25 05:10:00;;;;;;;6.95;1.70;;;;;;;;;;5032553;28;20040;-43
2023/11/25 05:12:28;;;;;;;12.00;1.75;;;;;;;;;;5032530;28;20048;-43
2023/11/25 05:14:55;;;;;;;8.73;1.67;;;;;;;;;;5032804;28;20017;-43
2023/11/25 05:17:22;;;;;;;5.63;1.65;;;;;;;;;;5032682;28;20137;-43
2023/11/25 05:19:49;;;;;;;11.57;1.75;;;;;;;;;;5032658;28;20021;-42
2023/11/25 05:22:16;;;;;;;13.85;2.17;;;;;;;;;;5032375;28;20025;-42
2023/11/25 05:24:43;;;;;;;11.02;2.25;;;;;;;;;;5032487;28;20018;-43
2023/11/25 05:27:10;;;;;;;11.18;2.08;;;;;;;;;;5032334;28;20036;-42
2023/11/25 05:29:37;;;;;;;13.82;2.47;;;;;;;;;;5032491;28;20031;-43
2023/11/25 05:32:06;;;;;;;10.45;1.85;;;;;;;;;;5032396;28;20017;-42
2023/11/25 05:34:33;;;;;;;10.15;1.90;;;;;;;;;;5032199;28;20056;-42
2023/11/25 05:37:00;;;;;;;15.85;2.38;;;;;;;;;;5032214;28;20040;-42
2023/11/25 05:39:28;;;;;;;10.82;1.70;;;;;;;;;;5032310;28;20040;-42
2023/11/25 05:41:55;;;;;;;11.32;2.00;;;;;;;;;;5032124;28;20480;-42
2023/11/25 05:44:25;;;;;;;12.63;1.90;;;;;;;;;;5032253;28;20030;-42
2023/11/25 05:46:54;;;;;;;14.35;2.20;;;;;;;;;;5031992;28;20041;-43
2023/11/25 05:49:22;;;;;;;8.07;1.60;;;;;;;;;;5031999;28;20025;-43
2023/11/25 05:51:50;;;;;;;11.07;2.08;;;;;;;;;;5032055;28;20105;-42
2023/11/25 05:54:18;;;;;;;8.70;2.10;;;;;;;;;;5031914;28;20479;-42
2023/11/25 05:56:45;;;;;;;12.90;2.10;;;;;;;;;;5031989;28;20506;-42
2023/11/25 05:59:12;;;;;;;9.68;1.67;;;;;;;;;;5031705;28;20025;-42
2023/11/25 06:01:39;;;;;;;9.35;2.08;;;;;;;;;;5030547;28;20037;-42
2023/11/25 06:04:07;;;;;;;7.47;2.08;;;;;;;;;;5031843;28;20388;-43
2023/11/25 06:06:35;;;;;;;10.55;2.10;;;;;;;;;;5031676;28;20112;-43
2023/11/25 06:09:05;;;;;;;10.40;1.92;;;;;;;;;;5031709;28;20032;-43
2023/11/25 06:11:36;;;;;;;7.50;1.52;;;;;;;;;;5031268;28;20455;-43
2023/11/25 06:14:02;;;;;;;12.13;2.22;;;;;;;;;;5031692;28;20029;-43
2023/11/25 06:16:29;;;;;;;11.55;1.60;;;;;;;;;;5031749;28;20030;-43
2023/11/25 06:18:56;;;;;;;12.50;1.60;;;;;;;;;;5031620;28;20025;-43
2023/11/25 06:21:23;;;;;;;10.77;1.83;;;;;;;;;;5031389;28;20097;-43
2023/11/25 06:23:50;;;;;;;11.35;1.83;;;;;;;;;;5031659;28;20021;-42
2023/11/25 06:26:19;;;;;;;12.52;1.83;;;;;;;;;;5031439;28;20740;-42
2023/11/25 06:28:47;;;;;;;9.88;1.95;;;;;;;;;;5031457;28;20526;-43
2023/11/25 06:31:15;;;;;;;9.30;2.10;;;;;;;;;;5031445;28;20029;-42
2023/11/25 06:33:42;;;;;;;11.23;1.80;;;;;;;;;;5031480;28;20025;-43
2023/11/25 06:36:10;;;;;;;15.32;1.70;;;;;;;;;;5031456;28;20492;-42
2023/11/25 06:38:37;;;;;;;7.57;1.75;;;;;;;;;;5031168;28;20025;-43
2023/11/25 06:41:04;;;;;;;9.15;1.70;;;;;;;;;;5031318;28;20037;-42
2023/11/25 06:43:31;;;;;;;10.85;2.03;;;;;;;;;;5031251;28;20044;-43
2023/11/25 06:46:00;;;;;;;10.25;1.80;;;;;;;;;;5031326;28;20164;-43
2023/11/25 06:48:27;;;;;;;11.68;1.95;;;;;;;;;;5031113;28;20033;-43
2023/11/25 06:50:54;;;;;;;6.03;1.35;;;;;;;;;;5031276;28;20030;-43
2023/11/25 06:53:21;;;;;;;11.43;1.88;;;;;;;;;;5031338;28;20104;-43
2023/11/25 06:55:48;;;;;;;12.13;1.60;;;;;;;;;;5031340;28;20032;-43
2023/11/25 06:58:15;;;;;;;10.60;1.83;;;;;;;;;;5031075;28;20021;-43
2023/11/25 07:00:42;;;;;;;9.80;1.52;;;;;;;;;;5031031;28;20046;-43
2023/11/25 07:03:09;;;;;;;13.15;1.60;;;;;;;;;;5030991;28;20388;-42
2023/11/25 07:05:37;;;;;;;10.15;1.90;;;;;;;;;;5031222;28;20101;-43
2023/11/25 07:08:05;;;;;;;6.75;1.70;;;;;;;;;;5031139;28;19944;-42
2023/11/25 07:10:35;;;;;;;6.97;1.70;;;;;;;;;;5031117;28;20057;-43
2023/11/25 07:13:06;;;;;;;11.57;1.70;;;;;;;;;;5030980;28;20071;-43
2023/11/25 07:15:33;;;;;;;11.10;1.73;;;;;;;;;;5031110;28;20021;-43
2023/11/25 07:18:00;;;;;;;4.80;1.20;;;;;;;;;;5031022;28;20026;-43
2023/11/25 07:20:28;;;;;;;9.25;1.45;;;;;;;;;;5031173;28;20024;-43
2023/11/25 07:22:55;;;;;;;7.53;1.73;;;;;;;;;;5031070;28;20017;-42
2023/11/25 07:25:22;;;;;;;9.30;1.67;;;;;;;;;;5034638;28;20083;-42
2023/11/25 07:27:50;;;;;;;8.00;1.13;;;;;;;;;;5034404;28;20029;-45
2023/11/25 07:30:17;;;;;;;7.38;1.35;;;;;;;;;;5034547;28;20044;-43
2023/11/25 07:32:44;;;;;;;7.10;1.25;;;;;;;;;;5034684;28;20017;-43
2023/11/25 07:35:11;;;;;;;7.85;1.70;;;;;;;;;;5034582;28;20086;-42
2023/11/25 07:37:38;;;;;;;6.88;1.50;;;;;;;;;;5034448;28;20025;-43
2023/11/25 07:40:10;;;;;;;8.70;1.90;;;;;;;;;;5034372;28;20108;-43
2023/11/25 07:42:40;;;;;;;11.52;1.50;;;;;;;;;;5034373;28;20443;-42
2023/11/25 07:45:09;;;;;;;8.02;1.70;;;;;;;;;;5017308;28;20029;-42
2023/11/25 07:47:36;;;;;;;9.13;1.52;;;;;;;;;;5034037;28;20033;-42
2023/11/25 07:50:04;;;;;;;12.25;1.70;;;;;;;;;;5034170;28;20066;-43
2023/11/25 07:52:30;;;;;;;7.40;1.58;;;;;;;;;;5034265;28;20052;-42
2023/11/25 07:54:58;;;;;;;7.05;1.73;;;;;;;;;;5034204;28;20029;-42
2023/11/25 07:57:25;;;;;;;7.65;1.45;;;;;;;;;;5034021;28;20030;-43
2023/11/25 07:59:51;;;;;;;9.65;1.75;;;;;;;;;;5033939;28;20095;-42
2023/11/25 08:02:18;;;;;;;8.60;1.92;;;;;;;;;;5034085;28;20025;-43
2023/11/25 08:04:45;;;;;;;7.53;1.42;;;;;;;;;;5034023;28;20028;-43
2023/11/25 08:07:13;;;;;;;11.77;2.05;;;;;;;;;;5033619;28;20391;-42
2023/11/25 08:09:39;;;;;;;6.32;1.30;;;;;;;;;;5033895;28;20036;-42
2023/11/25 08:12:06;;;;;;;7.40;1.42;;;;;;;;;;5033930;28;20036;-42
2023/11/25 08:14:33;;;;;;;7.35;1.60;;;;;;;;;;5033916;28;20021;-42
2023/11/25 08:17:00;;;;;;;9.48;1.45;;;;;;;;;;5033706;28;20052;-43
2023/11/25 08:19:27;;;;;;;8.73;1.70;;;;;;;;;;5033723;28;20487;-42
2023/11/25 08:21:54;;;;;;;8.02;1.50;;;;;;;;;;5033679;28;20487;-42
2023/11/25 08:24:21;;;;;;;4.35;1.30;;;;;;;;;;5033628;28;20087;-42
2023/11/25 08:26:49;;;;;;;8.27;1.60;;;;;;;;;;5033404;28;20083;-42
2023/11/25 08:29:17;;;;;;;10.13;1.63;;;;;;;;;;5033635;28;20391;-43
2023/11/25 08:31:44;;;;;;;9.90;1.50;;;;;;;;;;5033263;28;20026;-43
2023/11/25 08:34:12;;;;;;;3.92;1.35;;;;;;;;;;5033051;28;20038;-43
2023/11/25 08:36:44;;;;;;;5.80;1.27;;;;;;;;;;5033368;28;20499;-42
2023/11/25 08:39:13;;;;;;;10.52;1.40;;;;;;;;;;5033206;28;20021;-43
2023/11/25 08:41:45;;;;;;;8.35;1.50;;;;;;;;;;5033272;28;20488;-42
2023/11/25 08:44:15;;;;;;;8.43;1.52;;;;;;;;;;5015446;28;20520;-43
2023/11/25 08:46:45;;;;;;;5.43;1.70;;;;;;;;;;5033061;28;20075;-43
2023/11/25 08:49:13;;;;;;;8.40;1.48;;;;;;;;;;5033138;28;20030;-42
2023/11/25 08:51:45;;;;;;;9.32;1.42;;;;;;;;;;5033010;28;20531;-42
2023/11/25 08:54:13;;;;;;;6.35;1.60;;;;;;;;;;5032937;28;20361;-43
2023/11/25 08:56:47;;;;;;;7.20;1.38;;;;;;;;;;5032969;28;20036;-42
2023/11/25 08:59:17;;;;;;;8.60;1.23;;;;;;;;;;5032724;28;20039;-43
2023/11/25 09:01:46;;;;;;;8.90;1.48;;;;;;;;;;5032947;28;20033;-42
2023/11/25 09:04:19;;;;;;;5.38;1.38;;;;;;;;;;5033048;28;20029;-43
2023/11/25 09:06:46;;;;;;;4.85;1.25;;;;;;;;;;5032501;28;20385;-42
2023/11/25 09:09:15;;;;;;;7.72;1.70;;;;;;;;;;5032781;28;20025;-43
2023/11/25 09:11:43;;;;;;;7.50;1.55;;;;;;;;;;5032674;28;20554;-42
2023/11/25 09:14:10;;;;;;;8.80;1.40;;;;;;;;;;5032041;28;20535;-43
2023/11/25 09:16:37;;;;;;;8.50;1.40;;;;;;;;;;5032449;28;20083;-42
2023/11/25 09:19:04;;;;;;;5.45;1.33;;;;;;;;;;5032519;28;20028;-42
2023/11/25 09:21:31;;;;;;;6.00;1.17;;;;;;;;;;5032557;28;20386;-43
2023/11/25 09:23:59;;;;;;;5.03;1.05;;;;;;;;;;5032568;28;20487;-43
2023/11/25 09:26:25;;;;;;;5.68;1.35;;;;;;;;;;5032393;28;20036;-42
2023/11/25 09:28:54;;;;;;;9.75;1.33;;;;;;;;;;5032164;28;20037;-44
2023/11/25 09:31:22;;;;;;;7.20;1.30;;;;;;;;;;5032564;28;20124;-42
2023/11/25 09:33:54;;;;;;;10.35;1.80;;;;;;;;;;5032227;28;20033;-42
2023/11/25 09:36:22;;;;;;;6.97;1.80;;;;;;;;;;5032274;28;20033;-42
2023/11/25 09:38:49;;;;;;;7.82;1.42;;;;;;;;;;5032047;28;20032;-42
2023/11/25 09:41:16;;;;;;;4.47;1.48;;;;;;;;;;5032082;28;20518;-43
2023/11/25 09:43:43;;;;;;;8.23;1.48;;;;;;;;;;5032207;28;20455;-43
2023/11/25 09:46:11;;;;;;;12.13;1.30;;;;;;;;;;5031318;28;20033;-43
2023/11/25 09:48:38;;;;;;;7.63;1.45;;;;;;;;;;5032005;28;20551;-43
2023/11/25 09:51:08;;;;;;;5.90;1.20;;;;;;;;;;5032207;28;20447;-43
2023/11/25 09:53:37;;;;;;;7.90;1.55;;;;;;;;;;5032067;28;20028;-43
2023/11/25 09:56:05;;;;;;;8.77;1.55;;;;;;;;;;5031920;28;20372;-43
2023/11/25 09:58:36;;;;;;;10.00;1.60;;;;;;;;;;5014307;28;20029;-42
2023/11/25 10:01:10;;;;;;;6.18;1.60;;;;;;;;;;5031812;28;20067;-43
2023/11/25 10:03:38;;;;;;;8.77;1.50;;;;;;;;;;5031803;28;20025;-43
2023/11/25 10:06:05;;;;;;;8.65;1.40;;;;;;;;;;5031787;28;20373;-42
2023/11/25 10:08:34;;;;;;;6.20;1.63;;;;;;;;;;5031762;28;20104;-43
2023/11/25 10:11:08;;;;;;;10.02;1.38;;;;;;;;;;5031709;28;20152;-42
2023/11/25 10:13:35;;;;;;;6.00;1.13;;;;;;;;;;5031833;28;20032;-43
2023/11/25 10:16:03;;;;;;;8.02;1.45;;;;;;;;;;5031695;28;20056;-42
2023/11/25 10:18:31;;;;;;;5.75;1.23;;;;;;;;;;5031604;28;20021;-42
2023/11/25 10:20:58;;;;;;;11.55;1.35;;;;;;;;;;5031665;28;20032;-42
2023/11/25 10:23:26;;;;;;;10.75;1.55;;;;;;;;;;5031656;28;20018;-43
2023/11/25 10:25:53;;;;;;;12.27;1.58;;;;;;;;;;5031569;28;20053;-43
2023/11/25 10:28:21;;;;;;;8.68;2.13;;;;;;;;;;5031322;28;20557;-43
2023/11/25 10:30:54;;;;;;;10.82;1.75;;;;;;;;;;5031556;28;20029;-43
2023/11/25 10:33:22;;;;;;;8.57;1.63;;;;;;;;;;5031434;28;20021;-43
2023/11/25 10:35:49;;;;;;;7.60;1.40;;;;;;;;;;5031417;28;20075;-43
2023/11/25 10:38:17;;;;;;;9.75;1.48;;;;;;;;;;5031370;28;20029;-43
2023/11/25 10:40:44;;;;;;;8.73;1.58;;;;;;;;;;5031503;28;20025;-43
2023/11/25 10:43:11;;;;;;;9.73;1.73;;;;;;;;;;5031426;28;20032;-42
2023/11/25 10:45:39;;;;;;;9.15;1.63;;;;;;;;;;5031315;28;20025;-43
2023/11/25 10:48:07;;;;;;;6.75;1.50;;;;;;;;;;5031171;28;20052;-43
2023/11/25 10:50:34;;;;;;;5.78;1.60;;;;;;;;;;5012727;28;20088;-42
2023/11/25 10:53:05;;;;;;;6.55;1.50;;;;;;;;;;5011674;28;20033;-43
2023/11/25 10:55:32;;;;;;;9.68;1.40;;;;;;;;;;5011680;28;20022;-42
2023/11/25 10:58:00;;;;;;;6.75;1.40;;;;;;;;;;5013096;28;20057;-42
2023/11/25 11:00:34;;;;;;;5.70;1.40;;;;;;;;;;5015219;28;20050;-42
2023/11/25 11:03:05;;;;;;;11.00;1.83;;;;;;;;;;5015364;28;20040;-42
2023/11/25 11:05:35;;;;;;;13.80;1.98;;;;;;;;;;5015553;28;20048;-42
2023/11/25 11:08:05;;;;;;;12.13;2.13;;;;;;;;;;5015236;28;20022;-43
2023/11/25 11:10:36;;;;;;;14.20;1.80;;;;;;;;;;5015188;28;20022;-43
2023/11/25 11:13:08;;;;;;;12.32;1.92;;;;;;;;;;5015147;28;20029;-43
2023/11/25 11:15:36;;;;;;;19.80;2.35;;;;;;;;;;5019262;28;20029;-43
2023/11/25 11:18:06;;;;;;;15.43;2.38;;;;;;;;;;5022208;28;20059;-42
2023/11/25 11:20:37;;;;;;;11.48;2.33;;;;;;;;;;5023315;28;20033;-42
2023/11/25 11:23:05;;;;;;;16.63;2.17;;;;;;;;;;5023870;28;20384;-42
2023/11/25 11:25:35;;;;;;;37.45;3.10;;;;;;;;;;5023720;28;20025;-42
2023/11/25 11:28:22;;;;;;;46.20;4.03;;;;;;;;;;5026164;28;20038;-42
2023/11/25 11:31:07;;;;;;;37.45;4.38;;;;;;;;;;5034496;28;20025;-42
2023/11/25 11:33:35;;;;;;;40.08;3.70;;;;;;;;;;5034470;28;20025;-42
2023/11/25 11:36:05;;;;;;;38.58;3.90;;;;;;;;;;5034553;28;20044;-42
2023/11/25 11:38:32;;;;;;;36.55;3.60;;;;;;;;;;5034443;28;20101;-42
2023/11/25 11:41:00;;;;;;;30.60;3.58;;;;;;;;;;5034526;28;20022;-42
2023/11/25 11:43:28;;;;;;;40.97;3.63;;;;;;;;;;5026757;28;20033;-42
2023/11/25 11:45:56;;;;;;;36.25;3.65;;;;;;;;;;5022662;28;20038;-42
2023/11/25 11:48:26;;;;;;;36.63;3.47;;;;;;;;;;5023820;28;20430;-42
2023/11/25 11:50:57;;;;;;;45.33;4.05;;;;;;;;;;5024810;28;20032;-43
2023/11/25 11:53:28;;;;;;;26.98;3.40;;;;;;;;;;5024137;28;20088;-42
2023/11/25 11:55:58;;;;;;;27.75;3.00;;;;;;;;;;5022750;28;20030;-42
2023/11/25 11:58:26;;;;;;;28.98;3.00;;;;;;;;;;5023324;28;20036;-42
2023/11/25 12:01:03;;;;;;;34.92;3.22;;;;;;;;;;5024395;28;20120;-42
2023/11/25 12:03:37;;;;;;;27.75;2.78;;;;;;;;;;5024534;28;20026;-42
2023/11/25 12:06:05;;;;;;;29.92;3.25;;;;;;;;;;5023595;28;20506;-42
2023/11/25 12:08:34;;;;;;;39.65;3.80;;;;;;;;;;5022074;28;20052;-43
2023/11/25 12:11:04;;;;;;;41.63;4.43;;;;;;;;;;5023277;28;20040;-42
2023/11/25 12:13:32;;;;;;;34.17;4.38;;;;;;;;;;5024445;28;20039;-43
2023/11/25 12:16:00;;;;;;;46.65;4.38;;;;;;;;;;5022936;28;20547;-42
2023/11/25 12:18:31;;;;;;;43.03;4.93;;;;;;;;;;5022834;28;20064;-42
2023/11/25 12:21:01;;;;;;;61.83;5.10;;;;;;;;;;5022414;28;20133;-42
2023/11/25 12:23:32;;;;;;;47.50;4.80;;;;;;;;;;5022605;28;20025;-42
2023/11/25 12:25:59;;;;;;;52.22;5.35;;;;;;;;;;5006919;28;20029;-42
2023/11/25 12:28:26;;;;;;;50.05;4.95;;;;;;;;;;5032018;28;20487;-42
2023/11/25 12:30:53;;;;;;;56.00;5.05;;;;;;;;;;5008048;28;20036;-42
2023/11/25 12:33:21;;;;;;;49.67;5.20;;;;;;;;;;4995894;28;20446;-41
2023/11/25 12:35:47;;;;;;;53.55;4.78;;;;;;;;;;5013720;28;20101;-42
2023/11/25 12:38:15;;;;;;;70.18;6.70;;;;;;;;;;5013492;28;20022;-41
2023/11/25 12:40:44;;;;;;;77.15;6.55;;;;;;;;;;5013478;28;20033;-41
2023/11/25 12:43:11;;;;;;;68.70;5.70;;;;;;;;;;5011314;28;20057;-41
2023/11/25 12:45:40;;;;;;;66.75;6.07;;;;;;;;;;5012578;28;20491;-42
2023/11/25 12:48:11;;;;;;;77.63;6.50;;;;;;;;;;5022672;28;20052;-42
2023/11/25 12:50:56;;;;;;;75.40;6.40;;;;;;;;;;5032758;28;20037;-42
2023/11/25 12:53:23;;;;;;;74.78;6.95;;;;;;;;;;5033039;28;20029;-42
2023/11/25 12:55:50;;;;;;;77.13;6.72;;;;;;;;;;5032661;28;20562;-42
2023/11/25 12:58:20;;;;;;;82.13;6.63;;;;;;;;;;5027503;28;20045;-40
2023/11/25 13:00:50;;;;;;;81.35;7.13;;;;;;;;;;5018335;28;20415;-40
2023/11/25 13:03:24;;;;;;;65.63;6.35;;;;;;;;;;5032667;28;20040;-40
2023/11/25 13:06:10;;;;;;;74.95;6.38;;;;;;;;;;5029046;28;20032;-40
2023/11/25 13:08:39;;;;;;;64.55;6.40;;;;;;;;;;5032681;28;20034;-40
2023/11/25 13:11:11;;;;;;;63.83;6.18;;;;;;;;;;5032237;28;20029;-40
2023/11/25 13:13:39;;;;;;;57.83;5.80;;;;;;;;;;5032715;28;20863;-41
2023/11/25 13:16:10;;;;;;;58.60;5.32;;;;;;;;;;5031680;28;20099;-41
2023/11/25 13:18:37;;;;;;;41.75;4.25;;;;;;;;;;5032426;28;20484;-40
2023/11/25 13:21:06;;;;;;;57.17;6.15;;;;;;;;;;5032208;28;20048;-40
2023/11/25 13:23:34;;;;;;;55.05;5.72;;;;;;;;;;5032276;28;20099;-40
2023/11/25 13:26:01;;;;;;;34.08;4.88;;;;;;;;;;5031679;28;20048;-40
2023/11/25 13:28:28;;;;;;;45.13;5.22;;;;;;;;;;5032127;28;20574;-40
2023/11/25 13:30:55;;;;;;;46.15;5.18;;;;;;;;;;5028808;28;20533;-41
2023/11/25 13:33:22;;;;;;;37.42;4.68;;;;;;;;;;5022830;28;20048;-41
2023/11/25 13:35:49;;;;;;;34.38;4.10;;;;;;;;;;5023473;28;20056;-40
2023/11/25 13:38:16;;;;;;;32.72;3.92;;;;;;;;;;5021025;28;20076;-40
2023/11/25 13:40:43;;;;;;;25.85;3.50;;;;;;;;;;5014582;28;20061;-40
2023/11/25 13:43:14;;;;;;;32.20;3.95;;;;;;;;;;5028224;28;20034;-40
2023/11/25 13:45:41;;;;;;;29.30;3.72;;;;;;;;;;5031431;28;20104;-40
2023/11/25 13:48:10;;;;;;;29.70;3.70;;;;;;;;;;5027314;28;20033;-40
2023/11/25 13:50:37;;;;;;;34.38;4.20;;;;;;;;;;5019282;28;20036;-40
2023/11/25 13:53:05;;;;;;;32.17;3.70;;;;;;;;;;5026064;28;20050;-40
2023/11/25 13:55:44;;;;;;;27.98;3.50;;;;;;;;;;5020120;28;20144;-40
2023/11/25 13:58:11;;;;;;;23.95;3.58;;;;;;;;;;5021086;28;20030;-40
2023/11/25 14:00:39;;;;;;;30.35;3.50;;;;;;;;;;5031466;28;20128;-40
2023/11/25 14:03:07;;;;;;;27.75;3.75;;;;;;;;;;5025813;28;20388;-40
2023/11/25 14:05:40;;;;;;;22.77;2.90;;;;;;;;;;5022530;28;20025;-41
2023/11/25 14:08:07;;;;;;;24.88;3.28;;;;;;;;;;5020194;28;20041;-41
2023/11/25 14:10:35;;;;;;;21.35;3.10;;;;;;;;;;5019282;28;20038;-41
2023/11/25 14:13:03;;;;;;;22.98;3.28;;;;;;;;;;5025646;28;20026;-41
2023/11/25 14:15:30;;;;;;;28.55;3.15;;;;;;;;;;5016562;28;20041;-41
2023/11/25 14:17:57;;;;;;;26.67;3.85;;;;;;;;;;5021793;28;20029;-41
2023/11/25 14:20:24;;;;;;;23.30;2.97;;;;;;;;;;5008549;28;20087;-41
2023/11/25 14:22:51;;;;;;;30.50;3.28;;;;;;;;;;5019887;28;20034;-42
2023/11/25 14:25:19;;;;;;;25.52;2.85;;;;;;;;;;5019877;28;20041;-41
2023/11/25 14:27:49;;;;;;;19.33;3.05;;;;;;;;;;5019885;28;20086;-41
2023/11/25 14:30:22;;;;;;;16.23;3.00;;;;;;;;;;5022617;28;20033;-41
2023/11/25 14:32:50;;;;;;;30.45;2.83;;;;;;;;;;5021339;28;20098;-41
2023/11/25 14:35:17;;;;;;;16.95;2.70;;;;;;;;;;5020045;28;20518;-41
2023/11/25 14:37:44;;;;;;;15.27;2.80;;;;;;;;;;5029355;28;20021;-41
2023/11/25 14:40:14;;;;;;;15.20;2.42;;;;;;;;;;5033142;28;20095;-42